createdAt,value
2022-09-04T00:00:53.465Z,4.83
2022-09-04T00:03:28.414Z,4.67
2022-09-04T00:05:52.402Z,4.50
2022-09-04T00:08:28.957Z,6.30
2022-09-04T00:10:55.658Z,5.70
2022-09-04T00:13:22.225Z,6.00
2022-09-04T00:15:46.655Z,6.20
2022-09-04T00:18:11.673Z,5.43
2022-09-04T00:20:38.990Z,5.80
2022-09-04T00:23:05.090Z,6.23
2022-09-04T00:25:34.682Z,5.80
2022-09-04T00:28:02.909Z,5.23
2022-09-04T00:30:24.425Z,5.13
2022-09-04T00:32:51.639Z,5.17
2022-09-04T00:35:16.736Z,4.90
2022-09-04T00:37:42.389Z,5.50
2022-09-04T00:40:06.439Z,5.17
2022-09-04T00:42:44.355Z,5.20
2022-09-04T00:45:17.378Z,4.97
2022-09-04T00:48:08.906Z,5.30
2022-09-04T00:50:40.975Z,4.90
2022-09-04T00:53:19.666Z,5.10
2022-09-04T00:56:04.729Z,5.70
2022-09-04T00:58:51.236Z,4.70
2022-09-04T01:01:17.123Z,4.90
2022-09-04T01:03:52.032Z,5.10
2022-09-04T01:06:22.345Z,5.20
2022-09-04T01:09:08.106Z,5.50
2022-09-04T01:11:37.430Z,5.67
2022-09-04T01:14:13.091Z,5.97
2022-09-04T01:16:37.344Z,5.87
2022-09-04T01:19:01.925Z,5.23
2022-09-04T01:21:48.337Z,5.60
2022-09-04T01:24:37.150Z,5.47
2022-09-04T01:27:05.950Z,5.13
2022-09-04T01:29:32.269Z,5.97
2022-09-04T01:31:56.956Z,5.83
2022-09-04T01:34:30.286Z,5.70
2022-09-04T01:36:57.242Z,5.13
2022-09-04T01:39:20.164Z,5.27
2022-09-04T01:41:45.067Z,5.77
2022-09-04T01:44:10.004Z,5.37
2022-09-04T01:46:48.116Z,5.77
2022-09-04T01:49:14.088Z,5.50
2022-09-04T01:51:41.264Z,6.33
2022-09-04T01:54:14.211Z,6.10
2022-09-04T01:56:40.498Z,6.23
2022-09-04T01:59:06.413Z,5.40
2022-09-04T02:01:35.645Z,5.73
2022-09-04T02:04:02.569Z,5.97
2022-09-04T02:06:31.225Z,6.13
2022-09-04T02:09:10.824Z,6.63
2022-09-04T02:11:32.782Z,6.23
2022-09-04T02:14:08.749Z,6.80
2022-09-04T02:16:38.722Z,7.00
2022-09-04T02:19:07.721Z,6.67
2022-09-04T02:21:32.919Z,6.50
2022-09-04T02:24:06.418Z,6.53
2022-09-04T02:26:31.618Z,6.67
2022-09-04T02:29:00.374Z,6.10
2022-09-04T02:31:29.265Z,6.53
2022-09-04T02:34:01.656Z,5.80
2022-09-04T02:36:25.993Z,5.97
2022-09-04T02:38:54.734Z,5.70
2022-09-04T02:41:24.130Z,6.07
2022-09-04T02:43:57.535Z,5.87
2022-09-04T02:46:25.808Z,5.77
2022-09-04T02:48:59.599Z,5.83
2022-09-04T02:51:31.989Z,6.03
2022-09-04T02:54:02.448Z,6.03
2022-09-04T02:56:31.306Z,6.23
2022-09-04T02:59:03.614Z,5.73
2022-09-04T03:01:29.782Z,5.70
2022-09-04T03:03:59.893Z,5.97
2022-09-04T03:06:25.181Z,5.47
2022-09-04T03:08:48.818Z,5.97
2022-09-04T03:11:18.422Z,6.10
2022-09-04T03:13:46.269Z,5.27
2022-09-04T03:16:13.147Z,5.37
2022-09-04T03:18:54.142Z,5.10
2022-09-04T03:21:23.834Z,5.40
2022-09-04T03:23:50.033Z,5.00
2022-09-04T03:26:26.136Z,4.70
2022-09-04T03:28:55.809Z,4.20
2022-09-04T03:31:30.198Z,3.80
2022-09-04T03:33:56.946Z,3.20
2022-09-04T03:36:24.053Z,3.30
2022-09-04T03:38:52.797Z,4.00
2022-09-04T03:41:25.219Z,3.10
2022-09-04T03:43:58.175Z,3.10
2022-09-04T03:46:27.935Z,2.90
2022-09-04T03:49:03.605Z,2.80
2022-09-04T03:51:35.239Z,2.93
2022-09-04T03:54:04.945Z,2.93
2022-09-04T03:57:06.161Z,3.10
2022-09-04T03:59:42.501Z,2.50
2022-09-04T04:02:07.829Z,2.70
2022-09-04T04:05:00.315Z,2.50
2022-09-04T04:07:30.444Z,2.23
2022-09-04T04:10:03.106Z,2.50
2022-09-04T04:12:51.349Z,2.43
2022-09-04T04:15:28.774Z,2.10
2022-09-04T04:18:02.254Z,1.90
2022-09-04T04:20:32.093Z,2.10
2022-09-04T04:23:03.199Z,1.80
2022-09-04T04:25:35.450Z,2.17
2022-09-04T04:28:07.681Z,1.80
2022-09-04T04:30:31.327Z,2.23
2022-09-04T04:33:25.305Z,2.07
2022-09-04T04:35:51.191Z,2.20
2022-09-04T04:38:35.942Z,2.20
2022-09-04T04:41:13.030Z,2.67
2022-09-04T04:43:43.307Z,2.37
2022-09-04T04:46:09.318Z,2.30
2022-09-04T04:48:55.306Z,2.30
2022-09-04T04:51:48.622Z,2.30
2022-09-04T04:54:26.793Z,2.83
2022-09-04T04:56:52.409Z,2.90
2022-09-04T04:59:23.203Z,2.67
2022-09-04T05:01:51.303Z,3.17
2022-09-04T05:04:19.089Z,3.00
2022-09-04T05:06:43.095Z,3.10
2022-09-04T05:09:14.763Z,2.50
2022-09-04T05:11:40.950Z,2.73
2022-09-04T05:14:11.871Z,2.80
2022-09-04T05:16:42.910Z,2.60
2022-09-04T05:19:12.432Z,2.90
2022-09-04T05:21:38.368Z,3.00
2022-09-04T05:24:03.744Z,2.40
2022-09-04T05:26:31.233Z,2.80
2022-09-04T05:29:00.464Z,2.63
2022-09-04T05:31:28.864Z,3.10
2022-09-04T05:33:57.205Z,3.03
2022-09-04T05:36:22.587Z,2.60
2022-09-04T05:38:51.416Z,2.47
2022-09-04T05:41:22.621Z,2.40
2022-09-04T05:43:54.676Z,2.40
2022-09-04T05:46:21.210Z,2.93
2022-09-04T05:48:47.554Z,3.30
2022-09-04T05:51:28.670Z,3.50
2022-09-04T05:54:25.934Z,3.00
2022-09-04T05:56:58.561Z,3.23
2022-09-04T05:59:55.794Z,3.00
2022-09-04T06:02:33.187Z,2.47
2022-09-04T06:05:21.337Z,2.50
2022-09-04T06:07:53.100Z,2.80
2022-09-04T06:10:18.748Z,2.50
2022-09-04T06:12:58.762Z,2.60
2022-09-04T06:15:26.869Z,2.43
2022-09-04T06:18:07.660Z,2.20
2022-09-04T06:20:46.241Z,2.17
2022-09-04T06:23:21.917Z,2.10
2022-09-04T06:26:08.718Z,2.50
2022-09-04T06:28:46.134Z,2.00
2022-09-04T06:31:24.605Z,2.17
2022-09-04T06:33:57.728Z,1.80
2022-09-04T06:36:38.815Z,2.27
2022-09-04T06:39:13.112Z,1.97
2022-09-04T06:41:44.702Z,1.60
2022-09-04T06:44:13.877Z,2.10
2022-09-04T06:46:39.863Z,2.30
2022-09-04T06:49:08.604Z,3.07
2022-09-04T06:51:46.207Z,3.30
2022-09-04T06:54:16.722Z,3.63
2022-09-04T06:56:50.378Z,3.40
2022-09-04T06:59:39.909Z,3.63
2022-09-04T07:02:10.623Z,3.53
2022-09-04T07:04:44.585Z,3.20
2022-09-04T07:07:12.009Z,3.10
2022-09-04T07:09:37.123Z,3.60
2022-09-04T07:12:22.329Z,3.73
2022-09-04T07:14:58.320Z,3.57
2022-09-04T07:17:24.730Z,3.97
2022-09-04T07:20:14.631Z,4.37
2022-09-04T07:23:03.913Z,4.07
2022-09-04T07:25:28.419Z,4.07
2022-09-04T07:27:56.880Z,3.93
2022-09-04T07:30:19.996Z,3.80
2022-09-04T07:32:45.670Z,4.20
2022-09-04T07:35:11.630Z,4.00
2022-09-04T07:37:39.951Z,4.13
2022-09-04T07:40:09.730Z,4.80
2022-09-04T07:42:33.857Z,3.87
2022-09-04T07:45:02.934Z,4.30
2022-09-04T07:47:30.386Z,4.33
2022-09-04T07:50:00.336Z,5.07
2022-09-04T07:52:31.632Z,4.17
2022-09-04T07:55:05.315Z,4.60
2022-09-04T07:58:14.306Z,4.10
2022-09-04T08:00:39.672Z,4.23
2022-09-04T08:03:29.864Z,4.23
2022-09-04T08:05:55.800Z,4.40
2022-09-04T08:08:51.665Z,4.30
2022-09-04T08:11:36.104Z,4.17
2022-09-04T08:14:22.118Z,4.30
2022-09-04T08:16:48.988Z,4.23
2022-09-04T08:19:27.629Z,4.10
2022-09-04T08:21:50.141Z,4.20
2022-09-04T08:24:35.473Z,4.10
2022-09-04T08:27:09.558Z,4.00
2022-09-04T08:29:43.494Z,4.10
2022-09-04T08:32:16.354Z,3.67
2022-09-04T08:34:53.934Z,3.83
2022-09-04T08:37:25.496Z,4.30
2022-09-04T08:39:54.235Z,4.03
2022-09-04T08:42:56.586Z,3.80
2022-09-04T08:45:46.013Z,3.70
2022-09-04T08:48:30.844Z,3.83
2022-09-04T08:51:29.775Z,4.03
2022-09-04T08:54:31.145Z,3.73
2022-09-04T08:57:09.270Z,3.77
2022-09-04T09:00:06.807Z,4.03
2022-09-04T09:03:07.060Z,3.93
2022-09-04T09:06:02.067Z,3.70
2022-09-04T09:08:38.229Z,3.77
2022-09-04T09:11:26.282Z,4.60
2022-09-04T09:14:15.748Z,3.30
2022-09-04T09:16:44.036Z,3.47
2022-09-04T09:19:22.778Z,3.30
2022-09-04T09:21:47.256Z,3.50
2022-09-04T09:24:25.667Z,3.20
2022-09-04T09:26:59.177Z,3.47
2022-09-04T09:29:35.639Z,3.20
2022-09-04T09:32:35.593Z,2.73
2022-09-04T09:35:24.631Z,2.70
2022-09-04T09:38:13.855Z,2.33
2022-09-04T09:41:00.466Z,2.57
2022-09-04T09:43:42.134Z,2.30
2022-09-04T09:46:39.521Z,2.30
2022-09-04T09:49:37.203Z,2.00
2022-09-04T09:52:14.765Z,2.20
2022-09-04T09:55:18.876Z,2.00
2022-09-04T09:58:08.025Z,2.00
2022-09-04T10:00:36.733Z,2.20
2022-09-04T10:03:34.581Z,1.90
2022-09-04T10:06:29.942Z,2.50
2022-09-04T10:09:15.212Z,2.07
2022-09-04T10:12:02.963Z,2.47
2022-09-04T10:14:45.955Z,2.20
2022-09-04T10:17:34.474Z,2.20
2022-09-04T10:20:37.601Z,1.97
2022-09-04T10:23:28.134Z,1.93
2022-09-04T10:26:02.034Z,2.13
2022-09-04T10:29:14.017Z,2.13
2022-09-04T10:31:45.610Z,1.90
2022-09-04T10:34:24.017Z,2.13
2022-09-04T10:36:56.864Z,2.00
2022-09-04T10:39:44.705Z,2.10
2022-09-04T10:42:16.231Z,2.10
2022-09-04T10:44:48.770Z,1.70
2022-09-04T10:47:17.223Z,1.70
2022-09-04T10:49:54.001Z,1.87
2022-09-04T10:52:42.126Z,1.80
2022-09-04T10:55:36.331Z,2.00
2022-09-04T10:58:10.616Z,1.80
2022-09-04T11:00:40.089Z,1.80
2022-09-04T11:03:17.690Z,1.80
2022-09-04T11:05:53.582Z,1.80
2022-09-04T11:08:40.228Z,1.80
2022-09-04T11:11:23.461Z,1.80
2022-09-04T11:13:57.921Z,1.70
2022-09-04T11:16:32.823Z,1.63
2022-09-04T11:19:29.269Z,1.87
2022-09-04T11:22:22.816Z,1.70
2022-09-04T11:25:20.722Z,2.00
2022-09-04T11:28:20.419Z,1.90
2022-09-04T11:30:59.127Z,1.73
2022-09-04T11:33:54.402Z,1.80
2022-09-04T11:36:43.987Z,1.80
2022-09-04T11:39:32.099Z,1.80
2022-09-04T11:42:09.813Z,1.70
2022-09-04T11:44:46.219Z,1.73
2022-09-04T11:47:34.924Z,1.80
2022-09-04T11:50:10.527Z,2.00
2022-09-04T11:52:55.593Z,1.80
2022-09-04T11:55:36.654Z,2.00
2022-09-04T11:58:23.686Z,1.67
2022-09-04T12:00:59.321Z,1.80
2022-09-04T12:03:53.119Z,2.00
2022-09-04T12:06:28.620Z,1.70
2022-09-04T12:09:33.421Z,1.50
2022-09-04T12:12:30.046Z,1.80
2022-09-04T12:15:22.271Z,1.70
2022-09-04T12:18:22.647Z,1.80
2022-09-04T12:21:14.244Z,1.60
2022-09-04T12:24:17.819Z,1.60
2022-09-04T12:27:17.058Z,1.60
2022-09-04T12:30:00.697Z,1.73
2022-09-04T12:32:50.974Z,1.70
2022-09-04T12:35:43.905Z,1.57
2022-09-04T12:38:26.494Z,1.80
2022-09-04T12:40:53.298Z,1.60
2022-09-04T12:43:26.192Z,1.60
2022-09-04T12:45:54.081Z,1.60
2022-09-04T12:48:20.401Z,1.30
2022-09-04T12:50:45.444Z,1.90
2022-09-04T12:53:25.908Z,1.67
2022-09-04T12:55:52.866Z,1.63
2022-09-04T12:58:24.218Z,1.70
2022-09-04T13:00:55.348Z,1.50
2022-09-04T13:03:20.366Z,1.47
2022-09-04T13:06:14.080Z,1.50
2022-09-04T13:08:43.956Z,1.60
2022-09-04T13:11:15.404Z,1.60
2022-09-04T13:13:45.925Z,1.67
2022-09-04T13:16:10.716Z,1.70
2022-09-04T13:18:58.761Z,1.77
2022-09-04T13:21:49.983Z,1.90
2022-09-04T13:24:36.480Z,1.70
2022-09-04T13:27:10.140Z,1.60
2022-09-04T13:29:41.954Z,1.50
2022-09-04T13:32:16.993Z,1.40
2022-09-04T13:34:48.410Z,1.70
2022-09-04T13:37:21.216Z,1.60
2022-09-04T13:40:12.413Z,1.60
2022-09-04T13:43:11.433Z,1.80
2022-09-04T13:45:34.454Z,1.80
2022-09-04T13:47:59.744Z,1.63
2022-09-04T13:50:25.971Z,1.60
2022-09-04T13:52:52.144Z,1.47
2022-09-04T13:55:18.732Z,1.87
2022-09-04T13:57:42.572Z,1.70
2022-09-04T14:00:07.262Z,1.53
2022-09-04T14:02:31.725Z,1.80
2022-09-04T14:04:55.327Z,1.60
2022-09-04T14:07:20.176Z,1.83
2022-09-04T14:09:44.064Z,1.60
2022-09-04T14:12:15.509Z,1.70
2022-09-04T14:15:07.662Z,1.50
2022-09-04T14:17:35.702Z,1.30
2022-09-04T14:20:02.053Z,1.50
2022-09-04T14:22:36.144Z,1.40
2022-09-04T14:25:06.727Z,1.70
2022-09-04T14:27:53.688Z,1.53
2022-09-04T14:30:22.246Z,1.67
2022-09-04T14:32:57.599Z,1.50
2022-09-04T14:35:26.147Z,1.70
2022-09-04T14:38:04.452Z,1.63
2022-09-04T14:40:34.954Z,1.67
2022-09-04T14:43:03.752Z,1.50
2022-09-04T14:45:46.576Z,1.60
2022-09-04T14:48:12.101Z,1.70
2022-09-04T14:50:44.527Z,1.53
2022-09-04T14:53:08.929Z,1.60
2022-09-04T14:55:35.378Z,1.40
2022-09-04T14:58:02.898Z,6.90
2022-09-04T15:00:24.799Z,20.30
2022-09-04T15:03:16.243Z,4.87
2022-09-04T15:05:47.336Z,1.67
2022-09-04T15:08:09.203Z,1.47
2022-09-04T15:10:36.264Z,1.37
2022-09-04T15:13:24.241Z,1.40
2022-09-04T15:15:49.019Z,1.50
2022-09-04T15:18:15.926Z,2.00
2022-09-04T15:20:42.004Z,1.60
2022-09-04T15:23:18.940Z,1.50
2022-09-04T15:26:02.196Z,1.60
2022-09-04T15:28:31.195Z,1.50
2022-09-04T15:31:02.713Z,1.70
2022-09-04T15:33:25.292Z,1.60
2022-09-04T15:36:05.356Z,3.67
2022-09-04T15:38:26.660Z,1.60
2022-09-04T15:41:13.070Z,1.50
2022-09-04T15:43:40.964Z,1.60
2022-09-04T15:46:04.983Z,1.30
2022-09-04T15:48:29.237Z,1.50
2022-09-04T15:51:03.881Z,1.37
2022-09-04T15:53:28.802Z,1.70
2022-09-04T15:55:52.285Z,1.40
2022-09-04T15:58:17.597Z,1.50
2022-09-04T16:00:56.465Z,1.60
2022-09-04T16:03:23.096Z,1.67
2022-09-04T16:05:47.256Z,1.50
2022-09-04T16:08:28.008Z,1.50
2022-09-04T16:10:57.445Z,1.60
2022-09-04T16:13:36.505Z,1.40
2022-09-04T16:16:06.415Z,1.60
2022-09-04T16:18:56.214Z,1.40
2022-09-04T16:21:23.821Z,1.63
2022-09-04T16:23:47.873Z,1.50
2022-09-04T16:26:16.468Z,1.63
2022-09-04T16:28:55.911Z,1.60
2022-09-04T16:31:25.624Z,1.60
2022-09-04T16:34:09.495Z,1.50
2022-09-04T16:36:56.504Z,1.33
2022-09-04T16:39:24.566Z,1.57
2022-09-04T16:42:10.235Z,1.40
2022-09-04T16:44:46.452Z,1.50
2022-09-04T16:47:15.018Z,1.80
2022-09-04T16:49:41.736Z,2.03
2022-09-04T16:52:31.917Z,2.00
2022-09-04T16:54:54.955Z,2.40
2022-09-04T16:57:18.530Z,8.43
2022-09-04T16:59:42.179Z,4.27
2022-09-04T17:02:05.187Z,2.70
2022-09-04T17:04:40.238Z,2.03
2022-09-04T17:07:09.649Z,1.60
2022-09-04T17:09:46.450Z,3.57
2022-09-04T17:12:18.054Z,2.03
2022-09-04T17:14:51.132Z,1.90
2022-09-04T17:17:31.410Z,2.10
2022-09-04T17:20:07.371Z,1.67
2022-09-04T17:28:04.858Z,1.70
2022-09-04T17:28:56.418Z,1.70
2022-09-04T17:29:19.377Z,3.60
2022-09-04T17:31:13.505Z,4.37
2022-09-04T17:40:33.446Z,4.70
2022-09-04T17:40:36.303Z,1.90
2022-09-04T17:40:39.585Z,2.67
2022-09-04T17:42:09.465Z,1.60
2022-09-04T17:44:46.015Z,1.60
2022-09-04T17:47:18.405Z,1.53
2022-09-04T17:49:44.440Z,1.63
2022-09-04T17:52:09.058Z,1.40
2022-09-04T17:54:32.481Z,1.60
2022-09-04T17:56:58.056Z,1.40
2022-09-04T17:59:23.721Z,1.83
2022-09-04T18:01:55.067Z,1.60
2022-09-04T18:04:23.289Z,1.80
2022-09-04T18:06:49.529Z,1.80
2022-09-04T18:09:15.413Z,1.87
2022-09-04T18:12:00.211Z,1.80
2022-09-04T18:14:26.381Z,1.80
2022-09-04T18:17:12.087Z,1.80
2022-09-04T18:19:40.748Z,2.10
2022-09-04T18:22:25.934Z,2.00
2022-09-04T18:24:50.951Z,2.10
2022-09-04T18:27:16.356Z,1.73
2022-09-04T18:35:12.313Z,2.00
2022-09-04T18:37:10.234Z,2.00
2022-09-04T18:37:25.320Z,2.30
2022-09-04T18:38:10.432Z,2.00
2022-09-04T18:43:05.379Z,2.03
2022-09-04T18:50:24.919Z,2.23
2022-09-04T18:50:33.996Z,2.23
2022-09-04T18:50:40.930Z,2.10
2022-09-04T18:51:51.092Z,2.00
2022-09-04T18:54:19.986Z,2.20
2022-09-04T18:56:47.793Z,2.23
2022-09-04T18:59:13.397Z,2.00
2022-09-04T19:01:41.408Z,2.40
2022-09-04T19:04:29.616Z,2.30
2022-09-04T19:06:57.453Z,2.43
2022-09-04T19:09:55.408Z,2.27
2022-09-04T19:12:21.116Z,2.10
2022-09-04T19:14:44.292Z,2.33
2022-09-04T19:17:10.341Z,2.30
2022-09-04T19:19:34.812Z,2.30
2022-09-04T19:21:58.775Z,2.43
2022-09-04T19:24:25.152Z,2.10
2022-09-04T19:27:26.485Z,2.23
2022-09-04T19:29:53.818Z,2.40
2022-09-04T19:32:19.944Z,2.30
2022-09-04T19:34:44.273Z,2.23
2022-09-04T19:38:55.830Z,2.00
2022-09-04T19:45:59.053Z,2.60
2022-09-04T19:46:02.656Z,2.43
2022-09-04T19:46:17.044Z,2.57
2022-09-04T19:48:20.799Z,2.50
2022-09-04T19:53:22.118Z,2.60
2022-09-04T19:53:42.699Z,2.47
2022-09-04T19:56:11.648Z,2.53
2022-09-04T19:58:39.149Z,2.50
2022-09-04T20:01:14.513Z,2.70
2022-09-04T20:03:39.861Z,2.67
2022-09-04T20:06:20.935Z,2.37
2022-09-04T20:08:46.834Z,2.80
2022-09-04T20:11:35.280Z,2.80
2022-09-04T20:13:59.857Z,2.73
2022-09-04T20:16:35.128Z,2.80
2022-09-04T20:19:03.585Z,2.73
2022-09-04T20:21:26.465Z,2.80
2022-09-04T20:23:51.025Z,2.60
2022-09-04T20:26:19.232Z,2.80
2022-09-04T20:28:48.709Z,3.00
2022-09-04T20:31:35.849Z,2.80
2022-09-04T20:34:08.200Z,2.60
2022-09-04T20:36:33.706Z,2.83
2022-09-04T20:38:59.005Z,2.63
2022-09-04T20:41:23.292Z,3.00
2022-09-04T20:43:52.146Z,2.90
2022-09-04T20:52:42.317Z,2.70
2022-09-04T20:52:44.635Z,2.70
2022-09-04T20:52:55.659Z,2.87
2022-09-04T20:54:56.512Z,2.67
2022-09-04T21:03:08.252Z,2.70
2022-09-04T21:03:12.415Z,2.90
2022-09-04T21:03:20.594Z,2.70
2022-09-04T21:05:50.453Z,2.53
2022-09-04T21:08:30.190Z,2.53
2022-09-04T21:10:56.155Z,2.90
2022-09-04T21:13:21.115Z,2.50
2022-09-04T21:15:49.746Z,3.00
2022-09-04T21:18:23.160Z,2.77
2022-09-04T21:21:15.408Z,2.70
2022-09-04T21:24:03.129Z,3.20
2022-09-04T21:26:33.845Z,2.90
2022-09-04T21:29:12.709Z,2.90
2022-09-04T21:32:08.709Z,3.10
2022-09-04T21:34:53.902Z,3.10
2022-09-04T21:37:18.966Z,3.23
2022-09-04T21:39:57.690Z,2.90
2022-09-04T21:42:47.158Z,3.40
2022-09-04T21:45:21.211Z,2.97
2022-09-04T21:48:03.787Z,2.90
2022-09-04T21:50:45.274Z,3.27
2022-09-04T21:53:46.587Z,3.10
2022-09-04T21:59:49.287Z,3.10
2022-09-04T22:02:41.130Z,3.23
2022-09-04T22:02:52.653Z,3.20
2022-09-04T22:05:18.419Z,2.83
2022-09-04T22:11:38.511Z,3.27
2022-09-04T22:13:30.588Z,3.37
2022-09-04T22:13:50.000Z,3.20
2022-09-04T22:16:18.683Z,3.17
2022-09-04T22:18:47.901Z,3.20
2022-09-04T22:21:21.130Z,3.33
2022-09-04T22:24:22.476Z,3.30
2022-09-04T22:27:23.640Z,3.10
2022-09-04T22:30:05.693Z,3.20
2022-09-04T22:33:12.616Z,3.30
2022-09-04T22:35:59.300Z,3.17
2022-09-04T22:38:33.937Z,3.33
2022-09-04T22:41:28.908Z,2.90
2022-09-04T22:44:00.281Z,3.40
2022-09-04T22:46:40.358Z,3.30
2022-09-04T22:49:16.333Z,3.23
2022-09-04T22:51:52.610Z,3.27
2022-09-04T22:54:24.704Z,3.23
2022-09-04T22:56:53.607Z,3.60
2022-09-04T22:59:53.220Z,3.10
2022-09-04T23:03:09.258Z,3.20
2022-09-04T23:05:42.862Z,3.20
2022-09-04T23:13:52.085Z,3.63
2022-09-04T23:13:53.799Z,3.13
2022-09-04T23:14:20.599Z,3.33
2022-09-04T23:17:10.969Z,3.70
2022-09-04T23:26:36.294Z,3.17
2022-09-04T23:26:46.612Z,3.40
2022-09-04T23:26:48.237Z,3.23
2022-09-04T23:28:52.363Z,3.40
2022-09-04T23:31:29.390Z,3.47
2022-09-04T23:34:07.389Z,3.37
2022-09-04T23:36:54.956Z,3.20
2022-09-04T23:39:44.507Z,3.30
2022-09-04T23:42:27.046Z,3.17
2022-09-04T23:45:12.381Z,3.47
2022-09-04T23:47:57.124Z,3.37
2022-09-04T23:50:31.185Z,3.50
2022-09-04T23:52:59.886Z,3.20
2022-09-04T23:55:41.546Z,3.77
2022-09-04T23:58:51.700Z,3.00
